Mold, United Kingdom
Current Conditions -  °F | °C
As of 1:20 PM on Thursday 27 Nov 2014 (Local Time) from EGNR Reporting Station
Broken Clouds Broken Clouds  
Wind Chill: 44°   Ceiling: 700
Heat Index: 46°   Visibility: 4mi
Dew Point: 45°   Wind: 5mph
Humidity: 93%   Direction: 150°SSE
Pressure: 29.56"   Gusts: NA
Location:  53.17°N, 3.14°W
Report Text: EGNR 271320Z 15004KT 7000 BKN007 BKN023 08/07 Q1001
Loading
Personal Weather Stations






























Interactive Weather Map New forecast layout! Learn more

10-Day Weather Forecast

Advertisements
Track Severe Weather on mobile